sensor_id;sensor_type;location;lat;lon;timestamp;pressure;altitude;pressure_sealevel;temperature;humidity
2339;BME280;1180;51.438;6.978;2022-12-01T00:00:32;101264.63;;;8.29;100.00
2339;BME280;1180;51.438;6.978;2022-12-01T00:02:58;101262.75;;;8.34;100.00
2339;BME280;1180;51.438;6.978;2022-12-01T00:05:23;101258.69;;;8.29;100.00
2339;BME280;1180;51.438;6.978;2022-12-01T00:07:49;101263.59;;;8.35;100.00
2339;BME280;1180;51.438;6.978;2022-12-01T00:10:14;101261.50;;;8.46;100.00
2339;BME280;1180;51.438;6.978;2022-12-01T00:12:57;101258.63;;;8.57;100.00
2339;BME280;1180;51.438;6.978;2022-12-01T00:15:25;101255.53;;;8.20;100.00
2339;BME280;1180;51.438;6.978;2022-12-01T00:17:51;101255.84;;;8.11;100.00
2339;BME280;1180;51.438;6.978;2022-12-01T00:20:17;101251.81;;;8.04;100.00
2339;BME280;1180;51.438;6.978;2022-12-01T00:22:44;101251.88;;;8.28;100.00
2339;BME280;1180;51.438;6.978;2022-12-01T00:25:10;101247.75;;;8.50;100.00
2339;BME280;1180;51.438;6.978;2022-12-01T00:27:35;101252.97;;;8.20;100.00
2339;BME280;1180;51.438;6.978;2022-12-01T00:30:01;101250.69;;;8.13;100.00
2339;BME280;1180;51.438;6.978;2022-12-01T00:32:29;101255.94;;;8.08;100.00
2339;BME280;1180;51.438;6.978;2022-12-01T00:34:54;101256.53;;;7.89;100.00
2339;BME280;1180;51.438;6.978;2022-12-01T00:37:19;101252.25;;;7.90;100.00
2339;BME280;1180;51.438;6.978;2022-12-01T00:39:45;101251.63;;;8.10;100.00
2339;BME280;1180;51.438;6.978;2022-12-01T00:42:10;101259.22;;;8.12;100.00
2339;BME280;1180;51.438;6.978;2022-12-01T00:44:35;101253.81;;;7.95;100.00
2339;BME280;1180;51.438;6.978;2022-12-01T00:47:01;101257.31;;;7.91;100.00
2339;BME280;1180;51.438;6.978;2022-12-01T00:49:27;101259.44;;;8.05;100.00
2339;BME280;1180;51.438;6.978;2022-12-01T00:51:52;101258.03;;;7.97;100.00
2339;BME280;1180;51.438;6.978;2022-12-01T00:54:17;101259.25;;;7.85;100.00
2339;BME280;1180;51.438;6.978;2022-12-01T00:56:43;101256.28;;;7.97;100.00
2339;BME280;1180;51.438;6.978;2022-12-01T00:59:08;101262.44;;;7.64;100.00
2339;BME280;1180;51.438;6.978;2022-12-01T01:01:33;101261.38;;;7.70;100.00
2339;BME280;1180;51.438;6.978;2022-12-01T01:03:59;101261.53;;;7.65;100.00
2339;BME280;1180;51.438;6.978;2022-12-01T01:06:24;101259.88;;;7.91;100.00
2339;BME280;1180;51.438;6.978;2022-12-01T01:08:50;101258.19;;;8.17;100.00
2339;BME280;1180;51.438;6.978;2022-12-01T01:11:15;101256.22;;;8.26;100.00
2339;BME280;1180;51.438;6.978;2022-12-01T01:13:40;101261.97;;;8.32;100.00
2339;BME280;1180;51.438;6.978;2022-12-01T01:16:08;101266.66;;;7.92;100.00
2339;BME280;1180;51.438;6.978;2022-12-01T01:18:35;101264.09;;;7.92;100.00
2339;BME280;1180;51.438;6.978;2022-12-01T01:21:03;101267.91;;;7.80;100.00
2339;BME280;1180;51.438;6.978;2022-12-01T01:23:29;101267.06;;;7.78;100.00
2339;BME280;1180;51.438;6.978;2022-12-01T01:26:03;101272.38;;;8.01;100.00
2339;BME280;1180;51.438;6.978;2022-12-01T01:28:30;101277.22;;;8.08;100.00
2339;BME280;1180;51.438;6.978;2022-12-01T01:30:56;101280.19;;;8.23;100.00
2339;BME280;1180;51.438;6.978;2022-12-01T01:33:21;101281.78;;;8.26;100.00
2339;BME280;1180;51.438;6.978;2022-12-01T01:35:47;101276.75;;;8.24;100.00
2339;BME280;1180;51.438;6.978;2022-12-01T01:38:12;101280.88;;;8.01;100.00
2339;BME280;1180;51.438;6.978;2022-12-01T01:40:44;101280.16;;;7.98;100.00
2339;BME280;1180;51.438;6.978;2022-12-01T01:43:15;101287.94;;;7.93;100.00
2339;BME280;1180;51.438;6.978;2022-12-01T01:45:42;101289.56;;;7.69;100.00
2339;BME280;1180;51.438;6.978;2022-12-01T01:48:09;101286.31;;;7.90;100.00
2339;BME280;1180;51.438;6.978;2022-12-01T01:50:36;101297.13;;;7.72;100.00
2339;BME280;1180;51.438;6.978;2022-12-01T01:53:05;101289.66;;;7.92;100.00
2339;BME280;1180;51.438;6.978;2022-12-01T01:55:33;101291.63;;;8.11;100.00
2339;BME280;1180;51.438;6.978;2022-12-01T01:58:00;101292.66;;;8.32;100.00
2339;BME280;1180;51.438;6.978;2022-12-01T02:00:27;101287.22;;;8.16;100.00
2339;BME280;1180;51.438;6.978;2022-12-01T02:02:55;101290.84;;;8.36;100.00
2339;BME280;1180;51.438;6.978;2022-12-01T02:05:24;101293.81;;;8.50;100.00
2339;BME280;1180;51.438;6.978;2022-12-01T02:07:52;101289.94;;;8.64;100.00
2339;BME280;1180;51.438;6.978;2022-12-01T02:10:19;101290.41;;;8.75;100.00
2339;BME280;1180;51.438;6.978;2022-12-01T02:15:37;101289.94;;;8.89;100.00
2339;BME280;1180;51.438;6.978;2022-12-01T02:18:18;101286.13;;;9.00;100.00
2339;BME280;1180;51.438;6.978;2022-12-01T02:26:48;101283.41;;;8.80;100.00
2339;BME280;1180;51.438;6.978;2022-12-01T02:37:06;101274.34;;;8.45;100.00
2339;BME280;1180;51.438;6.978;2022-12-01T02:39:39;101271.88;;;8.16;100.00
2339;BME280;1180;51.438;6.978;2022-12-01T02:42:14;101286.41;;;7.87;100.00
2339;BME280;1180;51.438;6.978;2022-12-01T02:45:04;101274.31;;;8.19;100.00
2339;BME280;1180;51.438;6.978;2022-12-01T02:47:35;101279.72;;;7.83;100.00
2339;BME280;1180;51.438;6.978;2022-12-01T02:50:02;101278.66;;;7.90;100.00
2339;BME280;1180;51.438;6.978;2022-12-01T02:52:28;101279.69;;;8.12;100.00
2339;BME280;1180;51.438;6.978;2022-12-01T02:54:55;101272.47;;;7.98;100.00
2339;BME280;1180;51.438;6.978;2022-12-01T02:57:21;101274.63;;;7.83;100.00
2339;BME280;1180;51.438;6.978;2022-12-01T02:59:50;101275.25;;;7.61;100.00
2339;BME280;1180;51.438;6.978;2022-12-01T03:08:00;101280.41;;;8.15;100.00
2339;BME280;1180;51.438;6.978;2022-12-01T03:10:51;101291.44;;;7.90;100.00
2339;BME280;1180;51.438;6.978;2022-12-01T03:13:37;101282.66;;;8.24;100.00
2339;BME280;1180;51.438;6.978;2022-12-01T03:16:27;101279.09;;;8.03;100.00
2339;BME280;1180;51.438;6.978;2022-12-01T03:19:10;101279.06;;;8.32;100.00
2339;BME280;1180;51.438;6.978;2022-12-01T03:21:41;101275.78;;;8.27;100.00
2339;BME280;1180;51.438;6.978;2022-12-01T03:24:19;101272.22;;;8.05;100.00
2339;BME280;1180;51.438;6.978;2022-12-01T03:26:48;101285.72;;;7.82;100.00
2339;BME280;1180;51.438;6.978;2022-12-01T03:29:23;101278.84;;;7.84;100.00
2339;BME280;1180;51.438;6.978;2022-12-01T03:31:54;101279.88;;;8.05;100.00
2339;BME280;1180;51.438;6.978;2022-12-01T03:34:49;101280.75;;;8.31;100.00
2339;BME280;1180;51.438;6.978;2022-12-01T03:37:26;101281.59;;;8.32;100.00
2339;BME280;1180;51.438;6.978;2022-12-01T03:39:55;101285.88;;;8.04;100.00
2339;BME280;1180;51.438;6.978;2022-12-01T03:42:37;101287.31;;;8.13;100.00
2339;BME280;1180;51.438;6.978;2022-12-01T03:45:08;101290.56;;;8.18;100.00
2339;BME280;1180;51.438;6.978;2022-12-01T03:47:37;101288.69;;;8.50;100.00
2339;BME280;1180;51.438;6.978;2022-12-01T03:50:06;101289.19;;;8.35;100.00
2339;BME280;1180;51.438;6.978;2022-12-01T03:55:46;101301.03;;;7.84;100.00
2339;BME280;1180;51.438;6.978;2022-12-01T03:58:26;101298.06;;;7.96;100.00
2339;BME280;1180;51.438;6.978;2022-12-01T04:00:53;101297.09;;;8.00;100.00
2339;BME280;1180;51.438;6.978;2022-12-01T04:03:23;101301.28;;;8.03;100.00
2339;BME280;1180;51.438;6.978;2022-12-01T04:05:49;101296.84;;;8.08;100.00
2339;BME280;1180;51.438;6.978;2022-12-01T04:08:15;101298.88;;;8.25;100.00
2339;BME280;1180;51.438;6.978;2022-12-01T04:10:41;101296.09;;;8.04;100.00
2339;BME280;1180;51.438;6.978;2022-12-01T04:13:06;101299.19;;;7.87;100.00
2339;BME280;1180;51.438;6.978;2022-12-01T04:15:40;101294.59;;;7.70;100.00
2339;BME280;1180;51.438;6.978;2022-12-01T04:18:05;101294.38;;;7.49;100.00
2339;BME280;1180;51.438;6.978;2022-12-01T04:20:30;101291.13;;;7.73;100.00
2339;BME280;1180;51.438;6.978;2022-12-01T04:22:55;101296.44;;;7.36;100.00
2339;BME280;1180;51.438;6.978;2022-12-01T04:25:21;101296.34;;;7.70;100.00
2339;BME280;1180;51.438;6.978;2022-12-01T04:27:46;101288.63;;;7.98;100.00
2339;BME280;1180;51.438;6.978;2022-12-01T04:30:13;101295.78;;;8.41;100.00
2339;BME280;1180;51.438;6.978;2022-12-01T04:32:39;101287.69;;;8.28;100.00
2339;BME280;1180;51.438;6.978;2022-12-01T04:35:06;101287.22;;;8.16;100.00
2339;BME280;1180;51.438;6.978;2022-12-01T04:37:32;101293.91;;;7.65;100.00
2339;BME280;1180;51.438;6.978;2022-12-01T04:39:57;101294.34;;;7.79;100.00
2339;BME280;1180;51.438;6.978;2022-12-01T04:42:22;101288.03;;;7.61;100.00
2339;BME280;1180;51.438;6.978;2022-12-01T04:44:48;101288.59;;;7.71;100.00
2339;BME280;1180;51.438;6.978;2022-12-01T04:47:13;101283.19;;;7.23;100.00
2339;BME280;1180;51.438;6.978;2022-12-01T04:49:38;101284.94;;;6.90;100.00
2339;BME280;1180;51.438;6.978;2022-12-01T04:52:04;101278.41;;;7.11;100.00
2339;BME280;1180;51.438;6.978;2022-12-01T04:54:29;101280.75;;;7.19;100.00
2339;BME280;1180;51.438;6.978;2022-12-01T04:56:54;101286.34;;;7.32;100.00
2339;BME280;1180;51.438;6.978;2022-12-01T04:59:20;101282.25;;;7.26;100.00
2339;BME280;1180;51.438;6.978;2022-12-01T05:01:45;101279.66;;;7.58;100.00
2339;BME280;1180;51.438;6.978;2022-12-01T05:04:12;101278.19;;;7.49;100.00
2339;BME280;1180;51.438;6.978;2022-12-01T05:06:38;101277.50;;;7.44;100.00
2339;BME280;1180;51.438;6.978;2022-12-01T05:09:05;101281.59;;;7.78;100.00
2339;BME280;1180;51.438;6.978;2022-12-01T05:11:31;101277.88;;;7.60;100.00
2339;BME280;1180;51.438;6.978;2022-12-01T05:13:57;101284.94;;;7.80;100.00
2339;BME280;1180;51.438;6.978;2022-12-01T05:16:26;101281.91;;;7.95;100.00
2339;BME280;1180;51.438;6.978;2022-12-01T05:18:53;101276.28;;;7.84;100.00
2339;BME280;1180;51.438;6.978;2022-12-01T05:21:40;101279.53;;;7.89;100.00
2339;BME280;1180;51.438;6.978;2022-12-01T05:24:06;101274.59;;;7.85;100.00
2339;BME280;1180;51.438;6.978;2022-12-01T05:26:32;101285.69;;;7.84;100.00
2339;BME280;1180;51.438;6.978;2022-12-01T05:28:58;101290.28;;;7.44;100.00
2339;BME280;1180;51.438;6.978;2022-12-01T05:31:23;101291.56;;;7.57;100.00
2339;BME280;1180;51.438;6.978;2022-12-01T05:33:49;101287.13;;;7.35;100.00
2339;BME280;1180;51.438;6.978;2022-12-01T05:36:14;101291.84;;;7.48;100.00
2339;BME280;1180;51.438;6.978;2022-12-01T05:38:39;101290.34;;;7.71;100.00
2339;BME280;1180;51.438;6.978;2022-12-01T05:41:05;101293.16;;;7.61;100.00
2339;BME280;1180;51.438;6.978;2022-12-01T05:43:30;101297.31;;;7.65;100.00
2339;BME280;1180;51.438;6.978;2022-12-01T05:45:56;101290.94;;;7.50;100.00
2339;BME280;1180;51.438;6.978;2022-12-01T05:48:22;101286.53;;;7.26;100.00
2339;BME280;1180;51.438;6.978;2022-12-01T05:50:47;101287.75;;;7.12;100.00
2339;BME280;1180;51.438;6.978;2022-12-01T05:53:13;101291.56;;;7.29;100.00
2339;BME280;1180;51.438;6.978;2022-12-01T05:55:39;101299.09;;;7.62;100.00
2339;BME280;1180;51.438;6.978;2022-12-01T05:58:04;101304.59;;;7.78;100.00
2339;BME280;1180;51.438;6.978;2022-12-01T06:00:30;101302.72;;;7.55;100.00
2339;BME280;1180;51.438;6.978;2022-12-01T06:02:55;101298.50;;;7.82;100.00
2339;BME280;1180;51.438;6.978;2022-12-01T06:05:20;101307.63;;;7.91;100.00
2339;BME280;1180;51.438;6.978;2022-12-01T06:07:46;101305.50;;;7.47;100.00
2339;BME280;1180;51.438;6.978;2022-12-01T06:10:11;101307.19;;;7.48;100.00
2339;BME280;1180;51.438;6.978;2022-12-01T06:12:37;101308.75;;;7.52;100.00
2339;BME280;1180;51.438;6.978;2022-12-01T06:15:04;101307.88;;;7.53;100.00
2339;BME280;1180;51.438;6.978;2022-12-01T06:17:31;101314.00;;;7.47;100.00
2339;BME280;1180;51.438;6.978;2022-12-01T06:19:56;101314.72;;;7.53;100.00
2339;BME280;1180;51.438;6.978;2022-12-01T06:22:22;101314.72;;;7.81;100.00
2339;BME280;1180;51.438;6.978;2022-12-01T06:24:47;101326.84;;;8.03;100.00
2339;BME280;1180;51.438;6.978;2022-12-01T06:27:12;101316.91;;;8.20;100.00
2339;BME280;1180;51.438;6.978;2022-12-01T06:29:37;101321.41;;;7.85;100.00
2339;BME280;1180;51.438;6.978;2022-12-01T06:32:03;101323.56;;;7.71;100.00
2339;BME280;1180;51.438;6.978;2022-12-01T06:34:28;101324.16;;;7.19;100.00
2339;BME280;1180;51.438;6.978;2022-12-01T06:36:54;101320.75;;;7.50;100.00
2339;BME280;1180;51.438;6.978;2022-12-01T06:39:19;101322.69;;;7.42;100.00
2339;BME280;1180;51.438;6.978;2022-12-01T06:41:44;101324.66;;;7.32;100.00
2339;BME280;1180;51.438;6.978;2022-12-01T06:44:10;101329.44;;;7.13;100.00
2339;BME280;1180;51.438;6.978;2022-12-01T06:46:35;101332.06;;;7.10;100.00
2339;BME280;1180;51.438;6.978;2022-12-01T06:49:01;101327.47;;;7.22;100.00
2339;BME280;1180;51.438;6.978;2022-12-01T06:51:26;101319.84;;;7.51;100.00
2339;BME280;1180;51.438;6.978;2022-12-01T06:53:55;101325.31;;;7.69;100.00
2339;BME280;1180;51.438;6.978;2022-12-01T06:56:21;101326.31;;;7.91;100.00
2339;BME280;1180;51.438;6.978;2022-12-01T06:58:51;101326.50;;;7.85;100.00
2339;BME280;1180;51.438;6.978;2022-12-01T07:01:16;101329.47;;;7.71;100.00
2339;BME280;1180;51.438;6.978;2022-12-01T07:03:42;101332.41;;;7.87;100.00
2339;BME280;1180;51.438;6.978;2022-12-01T07:06:07;101332.09;;;7.98;100.00
2339;BME280;1180;51.438;6.978;2022-12-01T07:08:33;101336.00;;;8.10;100.00
2339;BME280;1180;51.438;6.978;2022-12-01T07:11:04;101327.13;;;7.65;100.00
2339;BME280;1180;51.438;6.978;2022-12-01T07:13:29;101333.00;;;7.67;100.00
2339;BME280;1180;51.438;6.978;2022-12-01T07:15:56;101332.78;;;7.75;100.00
2339;BME280;1180;51.438;6.978;2022-12-01T07:18:22;101339.34;;;7.84;100.00
2339;BME280;1180;51.438;6.978;2022-12-01T07:20:47;101340.94;;;7.88;100.00
2339;BME280;1180;51.438;6.978;2022-12-01T07:23:12;101342.69;;;7.86;100.00
2339;BME280;1180;51.438;6.978;2022-12-01T07:25:38;101341.56;;;7.94;100.00
2339;BME280;1180;51.438;6.978;2022-12-01T07:28:03;101347.56;;;7.93;100.00
2339;BME280;1180;51.438;6.978;2022-12-01T07:30:29;101344.38;;;7.87;100.00
2339;BME280;1180;51.438;6.978;2022-12-01T07:32:54;101350.88;;;7.97;100.00
2339;BME280;1180;51.438;6.978;2022-12-01T07:35:20;101342.59;;;7.89;100.00
2339;BME280;1180;51.438;6.978;2022-12-01T07:37:46;101344.97;;;7.95;100.00
2339;BME280;1180;51.438;6.978;2022-12-01T07:40:11;101342.09;;;8.06;100.00
2339;BME280;1180;51.438;6.978;2022-12-01T07:42:40;101341.28;;;7.75;100.00
2339;BME280;1180;51.438;6.978;2022-12-01T07:45:06;101338.31;;;7.89;100.00
2339;BME280;1180;51.438;6.978;2022-12-01T07:47:32;101339.88;;;7.66;100.00
2339;BME280;1180;51.438;6.978;2022-12-01T07:49:57;101341.84;;;7.57;100.00
2339;BME280;1180;51.438;6.978;2022-12-01T07:52:22;101348.31;;;7.39;100.00
2339;BME280;1180;51.438;6.978;2022-12-01T07:54:48;101341.47;;;7.69;100.00
2339;BME280;1180;51.438;6.978;2022-12-01T07:57:13;101342.81;;;7.21;100.00
2339;BME280;1180;51.438;6.978;2022-12-01T07:59:39;101345.09;;;7.00;100.00
2339;BME280;1180;51.438;6.978;2022-12-01T08:02:04;101347.31;;;7.13;100.00
2339;BME280;1180;51.438;6.978;2022-12-01T08:04:30;101341.78;;;7.28;100.00
2339;BME280;1180;51.438;6.978;2022-12-01T08:06:55;101349.97;;;7.40;100.00
2339;BME280;1180;51.438;6.978;2022-12-01T08:09:20;101350.25;;;7.30;100.00
2339;BME280;1180;51.438;6.978;2022-12-01T08:11:46;101348.78;;;7.21;100.00
2339;BME280;1180;51.438;6.978;2022-12-01T08:14:11;101355.22;;;7.03;100.00
2339;BME280;1180;51.438;6.978;2022-12-01T08:16:36;101354.63;;;7.25;100.00
2339;BME280;1180;51.438;6.978;2022-12-01T08:19:02;101354.81;;;7.49;100.00
2339;BME280;1180;51.438;6.978;2022-12-01T08:21:27;101356.63;;;7.75;100.00
2339;BME280;1180;51.438;6.978;2022-12-01T08:23:54;101369.72;;;7.34;100.00
2339;BME280;1180;51.438;6.978;2022-12-01T08:26:21;101365.81;;;7.21;100.00
2339;BME280;1180;51.438;6.978;2022-12-01T08:28:47;101370.69;;;7.30;100.00
2339;BME280;1180;51.438;6.978;2022-12-01T08:33:39;101367.91;;;7.38;100.00
2339;BME280;1180;51.438;6.978;2022-12-01T08:36:05;101373.88;;;7.37;100.00
2339;BME280;1180;51.438;6.978;2022-12-01T08:38:31;101375.34;;;7.46;100.00
2339;BME280;1180;51.438;6.978;2022-12-01T08:41:01;101371.53;;;7.61;100.00
2339;BME280;1180;51.438;6.978;2022-12-01T08:43:26;101376.97;;;7.78;100.00
2339;BME280;1180;51.438;6.978;2022-12-01T08:45:52;101372.09;;;7.71;100.00
2339;BME280;1180;51.438;6.978;2022-12-01T08:48:17;101374.88;;;7.91;100.00
2339;BME280;1180;51.438;6.978;2022-12-01T08:50:42;101379.00;;;7.67;100.00
2339;BME280;1180;51.438;6.978;2022-12-01T08:53:08;101378.34;;;7.60;100.00
2339;BME280;1180;51.438;6.978;2022-12-01T08:55:33;101376.91;;;7.82;100.00
2339;BME280;1180;51.438;6.978;2022-12-01T08:57:58;101374.50;;;7.75;100.00
2339;BME280;1180;51.438;6.978;2022-12-01T09:00:24;101377.78;;;7.50;100.00
2339;BME280;1180;51.438;6.978;2022-12-01T09:02:49;101380.16;;;7.57;100.00
2339;BME280;1180;51.438;6.978;2022-12-01T09:05:14;101381.13;;;7.53;100.00
2339;BME280;1180;51.438;6.978;2022-12-01T09:07:40;101376.16;;;7.78;100.00
2339;BME280;1180;51.438;6.978;2022-12-01T09:10:07;101373.59;;;7.78;100.00
2339;BME280;1180;51.438;6.978;2022-12-01T09:12:33;101376.94;;;7.80;100.00
2339;BME280;1180;51.438;6.978;2022-12-01T09:14:58;101380.69;;;7.68;100.00
2339;BME280;1180;51.438;6.978;2022-12-01T09:17:23;101385.78;;;7.98;100.00
2339;BME280;1180;51.438;6.978;2022-12-01T09:19:49;101381.25;;;7.78;100.00
2339;BME280;1180;51.438;6.978;2022-12-01T09:22:14;101384.31;;;7.89;100.00
2339;BME280;1180;51.438;6.978;2022-12-01T09:24:39;101381.91;;;8.13;100.00
2339;BME280;1180;51.438;6.978;2022-12-01T09:27:05;101387.03;;;8.13;100.00
2339;BME280;1180;51.438;6.978;2022-12-01T09:29:31;101390.16;;;7.64;100.00
2339;BME280;1180;51.438;6.978;2022-12-01T09:31:58;101389.53;;;7.86;100.00
2339;BME280;1180;51.438;6.978;2022-12-01T09:34:25;101384.38;;;8.16;100.00
2339;BME280;1180;51.438;6.978;2022-12-01T09:36:54;101391.63;;;8.02;100.00
2339;BME280;1180;51.438;6.978;2022-12-01T09:39:19;101392.31;;;7.78;100.00
2339;BME280;1180;51.438;6.978;2022-12-01T09:41:46;101397.00;;;7.32;100.00
2339;BME280;1180;51.438;6.978;2022-12-01T09:44:44;101392.09;;;7.25;100.00
2339;BME280;1180;51.438;6.978;2022-12-01T09:47:17;101400.44;;;7.31;100.00
2339;BME280;1180;51.438;6.978;2022-12-01T09:52:14;101388.94;;;7.76;100.00
2339;BME280;1180;51.438;6.978;2022-12-01T09:54:41;101391.47;;;7.48;100.00
2339;BME280;1180;51.438;6.978;2022-12-01T09:57:20;101382.56;;;7.31;100.00
2339;BME280;1180;51.438;6.978;2022-12-01T09:59:50;101386.31;;;7.49;100.00
2339;BME280;1180;51.438;6.978;2022-12-01T10:02:25;101388.25;;;7.71;100.00
2339;BME280;1180;51.438;6.978;2022-12-01T10:04:53;101389.09;;;8.02;100.00
2339;BME280;1180;51.438;6.978;2022-12-01T10:07:27;101389.00;;;7.75;100.00
2339;BME280;1180;51.438;6.978;2022-12-01T10:09:57;101384.38;;;7.88;100.00
2339;BME280;1180;51.438;6.978;2022-12-01T10:12:26;101388.50;;;8.20;100.00
2339;BME280;1180;51.438;6.978;2022-12-01T10:18:00;101386.00;;;8.19;100.00
2339;BME280;1180;51.438;6.978;2022-12-01T10:23:46;101371.63;;;8.70;100.00
2339;BME280;1180;51.438;6.978;2022-12-01T10:29:27;101374.16;;;8.43;100.00
2339;BME280;1180;51.438;6.978;2022-12-01T10:32:01;101366.50;;;8.70;99.87
2339;BME280;1180;51.438;6.978;2022-12-01T10:34:31;101372.00;;;8.85;99.13
2339;BME280;1180;51.438;6.978;2022-12-01T10:36:58;101367.13;;;8.77;97.95
2339;BME280;1180;51.438;6.978;2022-12-01T10:39:35;101366.44;;;8.72;97.35
2339;BME280;1180;51.438;6.978;2022-12-01T10:42:06;101368.13;;;8.73;97.35
2339;BME280;1180;51.438;6.978;2022-12-01T10:44:36;101355.69;;;8.62;97.39
2339;BME280;1180;51.438;6.978;2022-12-01T10:47:02;101360.28;;;8.77;97.83
2339;BME280;1180;51.438;6.978;2022-12-01T10:49:39;101359.63;;;8.72;96.87
2339;BME280;1180;51.438;6.978;2022-12-01T10:52:05;101363.38;;;8.62;95.68
2339;BME280;1180;51.438;6.978;2022-12-01T10:54:35;101362.06;;;8.48;95.55
2339;BME280;1180;51.438;6.978;2022-12-01T10:57:01;101359.22;;;8.58;95.87
2339;BME280;1180;51.438;6.978;2022-12-01T10:59:31;101359.50;;;8.50;93.82
2339;BME280;1180;51.438;6.978;2022-12-01T11:01:59;101361.47;;;8.13;95.59
2339;BME280;1180;51.438;6.978;2022-12-01T11:06:54;101358.16;;;8.09;98.25
2339;BME280;1180;51.438;6.978;2022-12-01T11:09:22;101365.06;;;8.34;96.55
2339;BME280;1180;51.438;6.978;2022-12-01T11:12:16;101367.84;;;8.27;94.95
2339;BME280;1180;51.438;6.978;2022-12-01T11:19:51;101354.16;;;8.56;94.17
2339;BME280;1180;51.438;6.978;2022-12-01T11:22:28;101363.50;;;8.84;92.13
2339;BME280;1180;51.438;6.978;2022-12-01T11:24:59;101352.34;;;9.10;91.19
2339;BME280;1180;51.438;6.978;2022-12-01T11:27:32;101355.59;;;8.65;88.80
2339;BME280;1180;51.438;6.978;2022-12-01T11:30:25;101350.84;;;8.26;90.71
2339;BME280;1180;51.438;6.978;2022-12-01T11:32:53;101354.03;;;8.05;92.60
2339;BME280;1180;51.438;6.978;2022-12-01T11:35:21;101349.38;;;8.45;92.24
2339;BME280;1180;51.438;6.978;2022-12-01T11:37:54;101351.66;;;8.55;89.57
2339;BME280;1180;51.438;6.978;2022-12-01T11:40:24;101353.00;;;8.11;90.96
2339;BME280;1180;51.438;6.978;2022-12-01T11:42:53;101351.63;;;8.01;92.12
2339;BME280;1180;51.438;6.978;2022-12-01T11:50:38;101348.03;;;8.62;88.25
2339;BME280;1180;51.438;6.978;2022-12-01T11:53:27;101349.34;;;8.47;89.06
2339;BME280;1180;51.438;6.978;2022-12-01T11:56:17;101340.44;;;8.32;89.33
2339;BME280;1180;51.438;6.978;2022-12-01T11:58:45;101344.22;;;8.47;88.67
2339;BME280;1180;51.438;6.978;2022-12-01T12:06:48;101343.69;;;8.37;88.38
2339;BME280;1180;51.438;6.978;2022-12-01T12:09:25;101343.94;;;8.01;90.54
2339;BME280;1180;51.438;6.978;2022-12-01T12:14:51;101330.84;;;7.83;92.37
2339;BME280;1180;51.438;6.978;2022-12-01T12:28:25;101328.41;;;8.07;90.83
2339;BME280;1180;51.438;6.978;2022-12-01T12:36:13;101328.31;;;7.53;93.21
2339;BME280;1180;51.438;6.978;2022-12-01T12:41:41;101317.59;;;7.70;93.03
2339;BME280;1180;51.438;6.978;2022-12-01T12:52:27;101310.72;;;8.55;88.92
2339;BME280;1180;51.438;6.978;2022-12-01T12:57:43;101303.91;;;9.04;87.61
2339;BME280;1180;51.438;6.978;2022-12-01T13:00:14;101306.94;;;8.90;85.62
2339;BME280;1180;51.438;6.978;2022-12-01T13:03:04;101304.88;;;8.51;87.19
2339;BME280;1180;51.438;6.978;2022-12-01T13:05:38;101298.75;;;8.28;87.76
2339;BME280;1180;51.438;6.978;2022-12-01T13:08:12;101309.75;;;8.32;88.94
2339;BME280;1180;51.438;6.978;2022-12-01T13:16:29;101302.97;;;8.31;88.42
2339;BME280;1180;51.438;6.978;2022-12-01T13:19:04;101310.16;;;8.45;88.43
2339;BME280;1180;51.438;6.978;2022-12-01T13:21:38;101310.56;;;8.32;88.93
2339;BME280;1180;51.438;6.978;2022-12-01T13:24:05;101305.91;;;8.44;88.81
2339;BME280;1180;51.438;6.978;2022-12-01T13:26:34;101298.91;;;8.76;87.07
2339;BME280;1180;51.438;6.978;2022-12-01T13:29:03;101291.25;;;8.50;86.12
2339;BME280;1180;51.438;6.978;2022-12-01T13:31:41;101293.28;;;8.14;88.33
2339;BME280;1180;51.438;6.978;2022-12-01T13:34:24;101293.41;;;8.36;88.41
2339;BME280;1180;51.438;6.978;2022-12-01T13:36:51;101286.66;;;8.60;86.89
2339;BME280;1180;51.438;6.978;2022-12-01T13:42:15;101278.47;;;8.49;86.52
2339;BME280;1180;51.438;6.978;2022-12-01T13:44:49;101282.09;;;8.69;86.88
2339;BME280;1180;51.438;6.978;2022-12-01T13:49:43;101282.22;;;8.38;86.98
2339;BME280;1180;51.438;6.978;2022-12-01T13:57:27;101274.44;;;8.92;85.84
2339;BME280;1180;51.438;6.978;2022-12-01T14:02:22;101274.66;;;8.35;87.67
2339;BME280;1180;51.438;6.978;2022-12-01T14:04:48;101278.44;;;8.50;87.08
2339;BME280;1180;51.438;6.978;2022-12-01T14:07:19;101276.59;;;8.79;87.03
2339;BME280;1180;51.438;6.978;2022-12-01T14:09:47;101281.09;;;8.47;86.05
2339;BME280;1180;51.438;6.978;2022-12-01T14:12:19;101280.91;;;8.27;87.32
2339;BME280;1180;51.438;6.978;2022-12-01T14:14:56;101276.66;;;8.52;87.33
2339;BME280;1180;51.438;6.978;2022-12-01T14:17:26;101279.19;;;8.27;87.45
2339;BME280;1180;51.438;6.978;2022-12-01T14:19:52;101275.06;;;7.96;88.45
2339;BME280;1180;51.438;6.978;2022-12-01T14:24:59;101287.59;;;7.77;90.94
2339;BME280;1180;51.438;6.978;2022-12-01T14:27:40;101287.81;;;7.98;90.05
2339;BME280;1180;51.438;6.978;2022-12-01T14:41:28;101293.59;;;7.76;91.59
2339;BME280;1180;51.438;6.978;2022-12-01T14:43:58;101288.88;;;7.90;90.88
2339;BME280;1180;51.438;6.978;2022-12-01T14:49:33;101287.03;;;8.48;87.08
2339;BME280;1180;51.438;6.978;2022-12-01T14:52:06;101285.78;;;8.07;87.75
2339;BME280;1180;51.438;6.978;2022-12-01T14:54:42;101285.16;;;8.01;89.00
2339;BME280;1180;51.438;6.978;2022-12-01T14:57:11;101280.63;;;7.82;88.80
2339;BME280;1180;51.438;6.978;2022-12-01T14:59:37;101282.50;;;7.75;90.36
2339;BME280;1180;51.438;6.978;2022-12-01T15:02:04;101283.13;;;7.84;89.62
2339;BME280;1180;51.438;6.978;2022-12-01T15:04:34;101288.38;;;7.79;89.45
2339;BME280;1180;51.438;6.978;2022-12-01T15:07:01;101286.00;;;7.73;90.19
2339;BME280;1180;51.438;6.978;2022-12-01T15:09:26;101276.72;;;7.70;90.61
2339;BME280;1180;51.438;6.978;2022-12-01T15:11:57;101276.63;;;7.73;90.17
2339;BME280;1180;51.438;6.978;2022-12-01T15:16:57;101272.56;;;7.68;90.22
2339;BME280;1180;51.438;6.978;2022-12-01T15:19:29;101270.44;;;7.80;88.98
2339;BME280;1180;51.438;6.978;2022-12-01T15:21:56;101280.03;;;7.74;90.44
2339;BME280;1180;51.438;6.978;2022-12-01T15:24:26;101283.28;;;7.50;90.30
2339;BME280;1180;51.438;6.978;2022-12-01T15:26:54;101280.34;;;7.63;90.14
2339;BME280;1180;51.438;6.978;2022-12-01T15:32:00;101301.25;;;7.47;90.53
2339;BME280;1180;51.438;6.978;2022-12-01T15:34:44;101299.47;;;7.49;90.66